首页
METAR-TAF:

METAR-TAF

机场 :

大館能代機場

大館能代, 日本

纬度: 40-11N, 经度: 140-12E, 海拔: 84米

当前天气观测

该预报发布于10小时和13分钟前的10:00 UTC
风速3节,风向西南,在西之间变化
温度 20°C
湿度 94%
气压 1014 hPa
能見度: 4000
少量云层高于100英尺
散云层高于1000英尺
多云层高于2000英尺
阵雨, 轻雾

METAR: RJSR 241000Z 22003KT 170V260 4000 R11/1200VP2000N SHRA BR FEW001 SCT010 BKN020 20/19 Q1014

时间: 05:13 (20:13 UTC)


TAF: 丢失

超过4000个机场的气象观测和天气预报(METAR&TAF报告)。

可查询的气象台以黄色和红色小点在地图上表示。

将鼠标移到小点上方,可查看气象台名称。

然后点击查看天气观测和预报。

如需切换地图:点击带黑十字的绿色按钮放大地图;点击带横线的绿色按钮缩小地图;或者点击绿色箭头查看邻近地区的地图。


METAR-TAF: